sensor_id;sensor_type;location;lat;lon;timestamp;P1;durP1;ratioP1;P2;durP2;ratioP2
58015;SDS011;43809;52.110;20.964;2024-02-28T11:01:26;42.53;;;28.73;;
58015;SDS011;43809;52.110;20.964;2024-02-28T11:03:27;43.15;;;29.80;;
58015;SDS011;43809;52.110;20.964;2024-02-28T11:05:35;42.85;;;29.58;;
58015;SDS011;43809;52.110;20.964;2024-02-28T11:07:40;40.33;;;27.25;;
58015;SDS011;43809;52.110;20.964;2024-02-28T11:09:41;33.35;;;22.40;;
58015;SDS011;43809;52.110;20.964;2024-02-28T11:11:42;40.88;;;26.90;;
58015;SDS011;43809;52.110;20.964;2024-02-28T11:13:57;42.15;;;28.15;;
58015;SDS011;43809;52.110;20.964;2024-02-28T11:16:06;38.50;;;26.25;;
58015;SDS011;43809;52.110;20.964;2024-02-28T11:18:08;34.05;;;23.00;;
58015;SDS011;43809;52.110;20.964;2024-02-28T11:20:13;31.40;;;21.45;;
58015;SDS011;43809;52.110;20.964;2024-02-28T11:22:14;28.52;;;19.80;;
58015;SDS011;43809;52.110;20.964;2024-02-28T11:24:18;32.15;;;21.70;;
58015;SDS011;43809;52.110;20.964;2024-02-28T11:31:41;30.27;;;20.15;;
58015;SDS011;43809;52.110;20.964;2024-02-28T11:36:08;33.70;;;22.40;;
58015;SDS011;43809;52.110;20.964;2024-02-28T11:38:08;36.35;;;22.08;;
58015;SDS011;43809;52.110;20.964;2024-02-28T11:40:12;34.72;;;23.10;;
58015;SDS011;43809;52.110;20.964;2024-02-28T11:42:16;38.95;;;24.50;;
58015;SDS011;43809;52.110;20.964;2024-02-28T11:44:17;34.78;;;21.45;;
58015;SDS011;43809;52.110;20.964;2024-02-28T11:46:18;34.05;;;22.60;;
58015;SDS011;43809;52.110;20.964;2024-02-28T11:48:19;36.40;;;23.55;;
58015;SDS011;43809;52.110;20.964;2024-02-28T11:50:20;41.40;;;25.50;;
58015;SDS011;43809;52.110;20.964;2024-02-28T11:52:20;40.97;;;26.10;;
58015;SDS011;43809;52.110;20.964;2024-02-28T11:54:21;35.28;;;23.08;;
58015;SDS011;43809;52.110;20.964;2024-02-28T11:56:22;37.33;;;22.90;;
58015;SDS011;43809;52.110;20.964;2024-02-28T11:58:22;42.97;;;24.58;;
58015;SDS011;43809;52.110;20.964;2024-02-28T12:00:23;32.50;;;20.80;;
58015;SDS011;43809;52.110;20.964;2024-02-28T12:02:24;39.33;;;23.45;;
58015;SDS011;43809;52.110;20.964;2024-02-28T12:04:26;35.30;;;22.08;;
58015;SDS011;43809;52.110;20.964;2024-02-28T12:06:26;29.20;;;18.73;;
58015;SDS011;43809;52.110;20.964;2024-02-28T12:08:28;29.85;;;18.60;;
58015;SDS011;43809;52.110;20.964;2024-02-28T12:10:29;32.93;;;20.33;;
58015;SDS011;43809;52.110;20.964;2024-02-28T12:12:29;36.85;;;22.58;;
58015;SDS011;43809;52.110;20.964;2024-02-28T12:14:31;35.25;;;22.05;;
58015;SDS011;43809;52.110;20.964;2024-02-28T12:16:32;43.38;;;25.45;;
58015;SDS011;43809;52.110;20.964;2024-02-28T12:18:33;38.70;;;23.95;;
58015;SDS011;43809;52.110;20.964;2024-02-28T12:20:33;44.05;;;26.38;;
58015;SDS011;43809;52.110;20.964;2024-02-28T12:22:34;40.30;;;23.63;;
58015;SDS011;43809;52.110;20.964;2024-02-28T12:24:35;51.25;;;29.65;;
58015;SDS011;43809;52.110;20.964;2024-02-28T12:26:36;63.50;;;37.28;;
58015;SDS011;43809;52.110;20.964;2024-02-28T12:28:37;63.25;;;36.88;;
58015;SDS011;43809;52.110;20.964;2024-02-28T12:30:40;68.95;;;40.75;;
58015;SDS011;43809;52.110;20.964;2024-02-28T12:32:42;73.22;;;39.55;;
58015;SDS011;43809;52.110;20.964;2024-02-28T12:34:43;65.15;;;37.63;;
58015;SDS011;43809;52.110;20.964;2024-02-28T12:36:44;69.50;;;39.33;;
58015;SDS011;43809;52.110;20.964;2024-02-28T12:38:52;67.05;;;37.40;;
58015;SDS011;43809;52.110;20.964;2024-02-28T12:40:53;68.57;;;40.88;;
58015;SDS011;43809;52.110;20.964;2024-02-28T12:42:54;65.40;;;38.83;;
58015;SDS011;43809;52.110;20.964;2024-02-28T12:44:54;57.72;;;34.25;;
58015;SDS011;43809;52.110;20.964;2024-02-28T12:46:55;53.72;;;33.00;;
58015;SDS011;43809;52.110;20.964;2024-02-28T12:48:56;58.72;;;35.40;;
58015;SDS011;43809;52.110;20.964;2024-02-28T12:50:57;61.13;;;35.25;;
58015;SDS011;43809;52.110;20.964;2024-02-28T12:52:57;56.58;;;34.08;;
58015;SDS011;43809;52.110;20.964;2024-02-28T12:54:58;63.35;;;37.10;;
58015;SDS011;43809;52.110;20.964;2024-02-28T12:56:59;67.60;;;39.72;;
58015;SDS011;43809;52.110;20.964;2024-02-28T12:59:03;63.80;;;37.70;;
58015;SDS011;43809;52.110;20.964;2024-02-28T13:01:04;59.30;;;35.05;;
58015;SDS011;43809;52.110;20.964;2024-02-28T13:03:05;67.32;;;38.08;;
58015;SDS011;43809;52.110;20.964;2024-02-28T13:05:06;67.03;;;38.65;;
58015;SDS011;43809;52.110;20.964;2024-02-28T13:07:07;66.10;;;37.88;;
58015;SDS011;43809;52.110;20.964;2024-02-28T13:09:14;57.88;;;34.28;;
58015;SDS011;43809;52.110;20.964;2024-02-28T13:11:15;61.92;;;34.90;;
58015;SDS011;43809;52.110;20.964;2024-02-28T13:13:16;63.08;;;35.30;;
58015;SDS011;43809;52.110;20.964;2024-02-28T13:15:16;57.00;;;32.22;;
58015;SDS011;43809;52.110;20.964;2024-02-28T13:17:17;59.95;;;34.10;;
58015;SDS011;43809;52.110;20.964;2024-02-28T13:19:20;60.33;;;33.85;;
58015;SDS011;43809;52.110;20.964;2024-02-28T13:21:20;61.20;;;34.92;;
58015;SDS011;43809;52.110;20.964;2024-02-28T13:23:31;59.20;;;33.47;;
58015;SDS011;43809;52.110;20.964;2024-02-28T13:25:32;60.33;;;33.17;;
58015;SDS011;43809;52.110;20.964;2024-02-28T13:27:32;54.97;;;32.03;;
58015;SDS011;43809;52.110;20.964;2024-02-28T13:29:33;58.63;;;33.05;;
58015;SDS011;43809;52.110;20.964;2024-02-28T13:34:47;60.45;;;32.15;;
58015;SDS011;43809;52.110;20.964;2024-02-28T13:36:47;62.70;;;34.63;;
58015;SDS011;43809;52.110;20.964;2024-02-28T13:38:48;57.80;;;31.45;;
58015;SDS011;43809;52.110;20.964;2024-02-28T13:43:37;62.95;;;33.47;;
58015;SDS011;43809;52.110;20.964;2024-02-28T13:45:38;60.38;;;33.45;;
58015;SDS011;43809;52.110;20.964;2024-02-28T13:47:43;59.00;;;32.33;;
58015;SDS011;43809;52.110;20.964;2024-02-28T13:49:44;57.22;;;30.73;;
58015;SDS011;43809;52.110;20.964;2024-02-28T13:51:44;58.33;;;31.77;;
58015;SDS011;43809;52.110;20.964;2024-02-28T13:53:45;50.80;;;27.85;;
58015;SDS011;43809;52.110;20.964;2024-02-28T13:55:46;51.80;;;28.42;;
58015;SDS011;43809;52.110;20.964;2024-02-28T13:57:46;42.58;;;24.98;;
58015;SDS011;43809;52.110;20.964;2024-02-28T13:59:47;43.08;;;24.08;;
58015;SDS011;43809;52.110;20.964;2024-02-28T14:01:49;44.97;;;26.10;;
58015;SDS011;43809;52.110;20.964;2024-02-28T14:03:50;41.17;;;24.95;;
58015;SDS011;43809;52.110;20.964;2024-02-28T14:05:51;40.85;;;23.98;;
58015;SDS011;43809;52.110;20.964;2024-02-28T14:07:52;39.78;;;23.08;;
58015;SDS011;43809;52.110;20.964;2024-02-28T14:09:53;40.08;;;23.08;;
58015;SDS011;43809;52.110;20.964;2024-02-28T14:11:54;41.70;;;23.85;;
58015;SDS011;43809;52.110;20.964;2024-02-28T14:13:54;39.65;;;23.02;;
58015;SDS011;43809;52.110;20.964;2024-02-28T14:15:55;40.75;;;22.80;;
58015;SDS011;43809;52.110;20.964;2024-02-28T14:17:56;36.75;;;21.17;;
58015;SDS011;43809;52.110;20.964;2024-02-28T14:19:56;43.17;;;25.58;;
58015;SDS011;43809;52.110;20.964;2024-02-28T14:24:47;40.58;;;22.42;;
58015;SDS011;43809;52.110;20.964;2024-02-28T14:26:48;44.05;;;23.83;;
58015;SDS011;43809;52.110;20.964;2024-02-28T14:28:48;38.92;;;21.35;;
58015;SDS011;43809;52.110;20.964;2024-02-28T14:31:03;49.65;;;25.63;;
58015;SDS011;43809;52.110;20.964;2024-02-28T14:33:04;38.38;;;21.55;;
58015;SDS011;43809;52.110;20.964;2024-02-28T14:35:05;34.83;;;21.25;;
58015;SDS011;43809;52.110;20.964;2024-02-28T14:37:07;40.80;;;22.17;;
58015;SDS011;43809;52.110;20.964;2024-02-28T14:39:08;40.50;;;20.67;;
58015;SDS011;43809;52.110;20.964;2024-02-28T14:41:15;33.38;;;18.75;;
58015;SDS011;43809;52.110;20.964;2024-02-28T14:43:16;35.88;;;20.60;;
58015;SDS011;43809;52.110;20.964;2024-02-28T14:45:16;27.85;;;17.40;;
58015;SDS011;43809;52.110;20.964;2024-02-28T14:47:17;37.25;;;20.60;;
58015;SDS011;43809;52.110;20.964;2024-02-28T14:49:18;30.55;;;18.23;;
58015;SDS011;43809;52.110;20.964;2024-02-28T14:51:18;32.22;;;18.00;;
58015;SDS011;43809;52.110;20.964;2024-02-28T14:53:20;30.40;;;16.48;;
58015;SDS011;43809;52.110;20.964;2024-02-28T14:55:21;26.35;;;15.75;;
58015;SDS011;43809;52.110;20.964;2024-02-28T14:57:23;29.07;;;17.10;;
58015;SDS011;43809;52.110;20.964;2024-02-28T14:59:24;27.50;;;15.75;;
58015;SDS011;43809;52.110;20.964;2024-02-28T15:01:25;24.33;;;14.55;;
58015;SDS011;43809;52.110;20.964;2024-02-28T15:03:27;25.13;;;14.10;;
58015;SDS011;43809;52.110;20.964;2024-02-28T15:05:28;24.00;;;14.10;;
58015;SDS011;43809;52.110;20.964;2024-02-28T15:07:28;24.73;;;14.27;;
58015;SDS011;43809;52.110;20.964;2024-02-28T15:09:29;25.25;;;14.02;;
58015;SDS011;43809;52.110;20.964;2024-02-28T15:11:30;21.58;;;13.18;;
58015;SDS011;43809;52.110;20.964;2024-02-28T15:13:31;24.48;;;14.45;;
58015;SDS011;43809;52.110;20.964;2024-02-28T15:15:32;24.48;;;14.65;;
58015;SDS011;43809;52.110;20.964;2024-02-28T15:17:33;21.67;;;13.55;;
58015;SDS011;43809;52.110;20.964;2024-02-28T15:19:35;23.98;;;12.93;;
58015;SDS011;43809;52.110;20.964;2024-02-28T15:21:36;21.35;;;12.55;;
58015;SDS011;43809;52.110;20.964;2024-02-28T15:23:37;21.77;;;12.48;;
58015;SDS011;43809;52.110;20.964;2024-02-28T15:25:37;22.58;;;13.50;;
58015;SDS011;43809;52.110;20.964;2024-02-28T15:27:38;23.55;;;14.27;;
58015;SDS011;43809;52.110;20.964;2024-02-28T15:29:39;24.75;;;14.05;;
58015;SDS011;43809;52.110;20.964;2024-02-28T15:31:40;23.92;;;14.65;;
58015;SDS011;43809;52.110;20.964;2024-02-28T15:33:41;27.25;;;15.93;;
58015;SDS011;43809;52.110;20.964;2024-02-28T15:35:42;24.13;;;14.00;;
58015;SDS011;43809;52.110;20.964;2024-02-28T15:37:42;28.00;;;15.38;;
58015;SDS011;43809;52.110;20.964;2024-02-28T15:39:43;29.25;;;17.02;;
58015;SDS011;43809;52.110;20.964;2024-02-28T15:41:44;30.15;;;16.80;;
58015;SDS011;43809;52.110;20.964;2024-02-28T15:43:45;33.45;;;18.15;;
58015;SDS011;43809;52.110;20.964;2024-02-28T15:45:46;33.47;;;20.15;;
58015;SDS011;43809;52.110;20.964;2024-02-28T15:47:52;32.22;;;18.38;;
58015;SDS011;43809;52.110;20.964;2024-02-28T15:49:52;32.58;;;18.65;;
58015;SDS011;43809;52.110;20.964;2024-02-28T15:51:55;32.53;;;18.42;;
58015;SDS011;43809;52.110;20.964;2024-02-28T15:53:55;35.30;;;20.10;;
58015;SDS011;43809;52.110;20.964;2024-02-28T15:55:56;35.95;;;19.67;;
58015;SDS011;43809;52.110;20.964;2024-02-28T15:58:00;40.88;;;21.80;;
58015;SDS011;43809;52.110;20.964;2024-02-28T16:00:00;37.40;;;20.13;;
58015;SDS011;43809;52.110;20.964;2024-02-28T16:02:02;38.80;;;21.48;;
58015;SDS011;43809;52.110;20.964;2024-02-28T16:07:14;34.42;;;20.52;;
58015;SDS011;43809;52.110;20.964;2024-02-28T16:09:16;35.17;;;19.63;;
58015;SDS011;43809;52.110;20.964;2024-02-28T16:11:18;35.33;;;19.52;;
58015;SDS011;43809;52.110;20.964;2024-02-28T16:13:18;40.35;;;22.10;;
58015;SDS011;43809;52.110;20.964;2024-02-28T16:15:19;38.25;;;20.90;;
58015;SDS011;43809;52.110;20.964;2024-02-28T16:17:20;34.67;;;19.38;;
58015;SDS011;43809;52.110;20.964;2024-02-28T16:19:21;31.40;;;19.02;;
58015;SDS011;43809;52.110;20.964;2024-02-28T16:21:22;28.30;;;17.08;;
58015;SDS011;43809;52.110;20.964;2024-02-28T16:23:23;34.08;;;19.73;;
58015;SDS011;43809;52.110;20.964;2024-02-28T16:27:31;38.92;;;21.70;;
58015;SDS011;43809;52.110;20.964;2024-02-28T16:29:32;36.72;;;20.27;;
58015;SDS011;43809;52.110;20.964;2024-02-28T16:31:32;33.28;;;19.98;;
58015;SDS011;43809;52.110;20.964;2024-02-28T16:35:58;32.70;;;18.98;;
58015;SDS011;43809;52.110;20.964;2024-02-28T16:37:59;28.92;;;17.23;;
58015;SDS011;43809;52.110;20.964;2024-02-28T16:40:00;27.38;;;16.77;;
58015;SDS011;43809;52.110;20.964;2024-02-28T16:42:00;27.40;;;16.33;;
58015;SDS011;43809;52.110;20.964;2024-02-28T16:44:03;25.80;;;15.23;;
58015;SDS011;43809;52.110;20.964;2024-02-28T16:46:03;29.55;;;16.63;;
58015;SDS011;43809;52.110;20.964;2024-02-28T16:48:05;34.90;;;20.58;;
58015;SDS011;43809;52.110;20.964;2024-02-28T16:50:07;35.35;;;22.35;;
58015;SDS011;43809;52.110;20.964;2024-02-28T16:52:08;40.28;;;23.13;;
58015;SDS011;43809;52.110;20.964;2024-02-28T16:56:20;38.92;;;22.85;;
58015;SDS011;43809;52.110;20.964;2024-02-28T16:58:21;34.30;;;19.52;;
58015;SDS011;43809;52.110;20.964;2024-02-28T17:00:21;35.45;;;21.75;;
58015;SDS011;43809;52.110;20.964;2024-02-28T17:02:24;36.20;;;19.98;;
58015;SDS011;43809;52.110;20.964;2024-02-28T17:04:25;35.05;;;21.40;;
58015;SDS011;43809;52.110;20.964;2024-02-28T17:06:28;34.00;;;19.83;;
58015;SDS011;43809;52.110;20.964;2024-02-28T17:08:28;28.42;;;16.75;;
58015;SDS011;43809;52.110;20.964;2024-02-28T17:10:40;29.83;;;17.55;;
58015;SDS011;43809;52.110;20.964;2024-02-28T17:12:41;28.42;;;17.73;;
58015;SDS011;43809;52.110;20.964;2024-02-28T17:14:41;25.70;;;15.70;;
58015;SDS011;43809;52.110;20.964;2024-02-28T17:16:42;33.80;;;18.45;;
58015;SDS011;43809;52.110;20.964;2024-02-28T17:18:43;26.38;;;14.98;;
58015;SDS011;43809;52.110;20.964;2024-02-28T17:20:43;27.05;;;15.65;;
58015;SDS011;43809;52.110;20.964;2024-02-28T17:22:44;26.90;;;16.10;;
58015;SDS011;43809;52.110;20.964;2024-02-28T17:24:45;26.38;;;16.00;;
58015;SDS011;43809;52.110;20.964;2024-02-28T17:26:45;34.63;;;20.40;;
58015;SDS011;43809;52.110;20.964;2024-02-28T17:28:46;38.63;;;21.30;;
58015;SDS011;43809;52.110;20.964;2024-02-28T17:33:14;39.85;;;22.77;;
58015;SDS011;43809;52.110;20.964;2024-02-28T17:35:18;32.70;;;20.48;;
58015;SDS011;43809;52.110;20.964;2024-02-28T17:37:18;37.78;;;21.20;;
58015;SDS011;43809;52.110;20.964;2024-02-28T17:39:22;36.45;;;21.98;;
58015;SDS011;43809;52.110;20.964;2024-02-28T17:41:23;36.58;;;20.92;;
58015;SDS011;43809;52.110;20.964;2024-02-28T17:45:44;37.88;;;21.27;;
58015;SDS011;43809;52.110;20.964;2024-02-28T17:47:44;36.85;;;21.17;;
58015;SDS011;43809;52.110;20.964;2024-02-28T17:49:45;29.40;;;17.05;;
58015;SDS011;43809;52.110;20.964;2024-02-28T17:51:46;28.80;;;17.10;;
58015;SDS011;43809;52.110;20.964;2024-02-28T17:53:46;26.25;;;15.90;;
58015;SDS011;43809;52.110;20.964;2024-02-28T17:55:47;32.30;;;18.25;;
58015;SDS011;43809;52.110;20.964;2024-02-28T17:57:49;40.75;;;21.45;;
58015;SDS011;43809;52.110;20.964;2024-02-28T17:59:51;38.03;;;20.88;;
58015;SDS011;43809;52.110;20.964;2024-02-28T18:01:51;33.47;;;19.15;;
58015;SDS011;43809;52.110;20.964;2024-02-28T18:03:52;33.17;;;19.05;;
58015;SDS011;43809;52.110;20.964;2024-02-28T18:05:53;28.88;;;17.10;;
58015;SDS011;43809;52.110;20.964;2024-02-28T18:10:22;31.23;;;18.02;;
58015;SDS011;43809;52.110;20.964;2024-02-28T18:12:23;35.03;;;19.88;;
58015;SDS011;43809;52.110;20.964;2024-02-28T18:17:01;37.58;;;21.90;;
58015;SDS011;43809;52.110;20.964;2024-02-28T18:19:02;43.70;;;21.55;;
58015;SDS011;43809;52.110;20.964;2024-02-28T18:21:04;37.72;;;22.25;;
58015;SDS011;43809;52.110;20.964;2024-02-28T18:23:06;36.20;;;20.55;;
58015;SDS011;43809;52.110;20.964;2024-02-28T18:25:06;32.58;;;19.02;;
58015;SDS011;43809;52.110;20.964;2024-02-28T18:27:08;41.38;;;21.63;;
58015;SDS011;43809;52.110;20.964;2024-02-28T18:29:12;40.63;;;22.15;;
58015;SDS011;43809;52.110;20.964;2024-02-28T18:31:12;33.05;;;20.05;;
58015;SDS011;43809;52.110;20.964;2024-02-28T18:33:13;38.78;;;21.75;;
58015;SDS011;43809;52.110;20.964;2024-02-28T18:35:14;32.92;;;19.58;;
58015;SDS011;43809;52.110;20.964;2024-02-28T18:37:15;32.70;;;19.30;;
58015;SDS011;43809;52.110;20.964;2024-02-28T18:39:16;32.10;;;19.25;;
58015;SDS011;43809;52.110;20.964;2024-02-28T18:41:17;32.03;;;18.23;;
58015;SDS011;43809;52.110;20.964;2024-02-28T18:43:17;46.20;;;24.55;;
58015;SDS011;43809;52.110;20.964;2024-02-28T18:45:18;32.70;;;20.42;;
58015;SDS011;43809;52.110;20.964;2024-02-28T18:47:19;33.35;;;20.52;;
58015;SDS011;43809;52.110;20.964;2024-02-28T18:49:20;43.15;;;23.33;;
58015;SDS011;43809;52.110;20.964;2024-02-28T18:51:20;49.00;;;25.85;;
58015;SDS011;43809;52.110;20.964;2024-02-28T18:53:30;38.15;;;23.08;;
58015;SDS011;43809;52.110;20.964;2024-02-28T18:55:31;41.05;;;25.08;;
58015;SDS011;43809;52.110;20.964;2024-02-28T18:57:34;42.47;;;24.48;;
58015;SDS011;43809;52.110;20.964;2024-02-28T18:59:38;51.90;;;25.90;;
58015;SDS011;43809;52.110;20.964;2024-02-28T19:01:39;35.72;;;21.77;;
58015;SDS011;43809;52.110;20.964;2024-02-28T19:03:40;43.25;;;24.52;;
58015;SDS011;43809;52.110;20.964;2024-02-28T19:05:41;41.55;;;23.45;;
58015;SDS011;43809;52.110;20.964;2024-02-28T19:07:42;38.30;;;21.88;;
58015;SDS011;43809;52.110;20.964;2024-02-28T19:09:42;39.85;;;22.58;;
58015;SDS011;43809;52.110;20.964;2024-02-28T19:11:43;44.83;;;23.23;;
58015;SDS011;43809;52.110;20.964;2024-02-28T19:13:44;55.38;;;28.42;;
58015;SDS011;43809;52.110;20.964;2024-02-28T19:15:44;46.47;;;25.60;;
58015;SDS011;43809;52.110;20.964;2024-02-28T19:17:45;42.85;;;24.85;;
58015;SDS011;43809;52.110;20.964;2024-02-28T19:19:46;42.72;;;22.67;;
58015;SDS011;43809;52.110;20.964;2024-02-28T19:21:46;42.50;;;24.33;;
58015;SDS011;43809;52.110;20.964;2024-02-28T19:23:48;42.53;;;24.42;;
58015;SDS011;43809;52.110;20.964;2024-02-28T19:25:49;42.00;;;22.80;;
58015;SDS011;43809;52.110;20.964;2024-02-28T19:27:50;42.28;;;22.58;;
58015;SDS011;43809;52.110;20.964;2024-02-28T19:29:50;36.05;;;21.33;;
58015;SDS011;43809;52.110;20.964;2024-02-28T19:31:51;36.15;;;22.10;;
58015;SDS011;43809;52.110;20.964;2024-02-28T19:49:12;37.55;;;21.40;;
58015;SDS011;43809;52.110;20.964;2024-02-28T19:51:13;43.55;;;23.42;;
58015;SDS011;43809;52.110;20.964;2024-02-28T19:53:16;42.42;;;23.27;;
58015;SDS011;43809;52.110;20.964;2024-02-28T19:55:17;42.42;;;24.00;;
58015;SDS011;43809;52.110;20.964;2024-02-28T19:57:18;44.05;;;24.67;;
58015;SDS011;43809;52.110;20.964;2024-02-28T19:59:19;39.95;;;22.65;;
58015;SDS011;43809;52.110;20.964;2024-02-28T20:01:20;37.92;;;23.15;;
58015;SDS011;43809;52.110;20.964;2024-02-28T20:03:20;36.65;;;21.42;;
58015;SDS011;43809;52.110;20.964;2024-02-28T20:07:52;34.72;;;19.55;;
58015;SDS011;43809;52.110;20.964;2024-02-28T20:09:52;36.03;;;20.13;;
58015;SDS011;43809;52.110;20.964;2024-02-28T20:11:53;32.83;;;18.73;;
58015;SDS011;43809;52.110;20.964;2024-02-28T20:13:54;32.65;;;19.05;;
58015;SDS011;43809;52.110;20.964;2024-02-28T20:24:42;35.50;;;19.92;;
58015;SDS011;43809;52.110;20.964;2024-02-28T20:26:43;33.92;;;18.92;;
58015;SDS011;43809;52.110;20.964;2024-02-28T20:31:07;32.95;;;18.75;;
58015;SDS011;43809;52.110;20.964;2024-02-28T20:33:07;35.92;;;20.00;;
58015;SDS011;43809;52.110;20.964;2024-02-28T20:35:08;37.13;;;20.25;;
58015;SDS011;43809;52.110;20.964;2024-02-28T20:37:09;32.85;;;20.25;;
58015;SDS011;43809;52.110;20.964;2024-02-28T20:39:10;34.90;;;19.42;;
58015;SDS011;43809;52.110;20.964;2024-02-28T20:41:11;34.83;;;19.20;;
58015;SDS011;43809;52.110;20.964;2024-02-28T20:43:11;29.67;;;18.75;;
58015;SDS011;43809;52.110;20.964;2024-02-28T20:45:12;33.65;;;19.52;;
58015;SDS011;43809;52.110;20.964;2024-02-28T20:47:13;37.10;;;21.67;;
58015;SDS011;43809;52.110;20.964;2024-02-28T20:49:13;38.70;;;22.90;;
58015;SDS011;43809;52.110;20.964;2024-02-28T20:51:14;40.08;;;22.98;;
58015;SDS011;43809;52.110;20.964;2024-02-28T20:53:18;36.13;;;20.92;;
58015;SDS011;43809;52.110;20.964;2024-02-28T20:55:21;37.30;;;20.48;;
58015;SDS011;43809;52.110;20.964;2024-02-28T20:57:26;33.25;;;20.83;;
58015;SDS011;43809;52.110;20.964;2024-02-28T20:59:26;34.97;;;20.25;;
58015;SDS011;43809;52.110;20.964;2024-02-28T21:01:27;39.60;;;21.23;;
58015;SDS011;43809;52.110;20.964;2024-02-28T21:03:32;35.50;;;19.60;;
58015;SDS011;43809;52.110;20.964;2024-02-28T21:05:33;28.20;;;17.20;;
58015;SDS011;43809;52.110;20.964;2024-02-28T21:07:33;31.42;;;18.73;;
58015;SDS011;43809;52.110;20.964;2024-02-28T21:09:34;33.20;;;19.17;;
58015;SDS011;43809;52.110;20.964;2024-02-28T21:11:36;35.30;;;20.13;;
58015;SDS011;43809;52.110;20.964;2024-02-28T21:13:36;32.78;;;18.55;;
58015;SDS011;43809;52.110;20.964;2024-02-28T21:18:01;35.92;;;19.48;;
58015;SDS011;43809;52.110;20.964;2024-02-28T21:20:02;33.45;;;19.83;;
58015;SDS011;43809;52.110;20.964;2024-02-28T21:22:21;34.67;;;20.42;;
58015;SDS011;43809;52.110;20.964;2024-02-28T21:24:21;31.75;;;17.42;;
58015;SDS011;43809;52.110;20.964;2024-02-28T21:26:22;32.60;;;18.70;;
58015;SDS011;43809;52.110;20.964;2024-02-28T21:28:26;38.10;;;19.80;;
58015;SDS011;43809;52.110;20.964;2024-02-28T21:30:30;30.13;;;17.85;;
58015;SDS011;43809;52.110;20.964;2024-02-28T21:32:30;35.22;;;19.08;;
58015;SDS011;43809;52.110;20.964;2024-02-28T21:34:31;31.70;;;18.08;;
58015;SDS011;43809;52.110;20.964;2024-02-28T21:36:32;45.17;;;20.70;;
58015;SDS011;43809;52.110;20.964;2024-02-28T21:38:34;38.22;;;19.73;;
58015;SDS011;43809;52.110;20.964;2024-02-28T21:40:36;34.05;;;19.92;;
58015;SDS011;43809;52.110;20.964;2024-02-28T21:42:37;36.08;;;19.38;;
58015;SDS011;43809;52.110;20.964;2024-02-28T21:44:37;34.92;;;20.05;;
58015;SDS011;43809;52.110;20.964;2024-02-28T21:46:38;41.08;;;23.02;;
58015;SDS011;43809;52.110;20.964;2024-02-28T21:48:44;35.05;;;21.15;;
58015;SDS011;43809;52.110;20.964;2024-02-28T21:50:44;42.60;;;22.88;;
58015;SDS011;43809;52.110;20.964;2024-02-28T21:52:45;35.88;;;22.10;;
58015;SDS011;43809;52.110;20.964;2024-02-28T21:54:46;47.63;;;27.77;;
58015;SDS011;43809;52.110;20.964;2024-02-28T21:56:46;45.85;;;25.45;;
58015;SDS011;43809;52.110;20.964;2024-02-28T21:58:47;42.05;;;23.25;;
58015;SDS011;43809;52.110;20.964;2024-02-28T22:00:50;47.00;;;23.42;;
58015;SDS011;43809;52.110;20.964;2024-02-28T22:02:50;39.17;;;21.58;;
58015;SDS011;43809;52.110;20.964;2024-02-28T22:04:51;38.90;;;21.58;;
58015;SDS011;43809;52.110;20.964;2024-02-28T22:06:52;39.85;;;22.75;;
58015;SDS011;43809;52.110;20.964;2024-02-28T22:08:53;37.75;;;20.75;;
58015;SDS011;43809;52.110;20.964;2024-02-28T22:10:59;35.95;;;20.85;;
58015;SDS011;43809;52.110;20.964;2024-02-28T22:16:12;33.63;;;20.13;;
58015;SDS011;43809;52.110;20.964;2024-02-28T22:18:13;37.85;;;22.38;;
58015;SDS011;43809;52.110;20.964;2024-02-28T22:20:13;43.10;;;23.08;;
58015;SDS011;43809;52.110;20.964;2024-02-28T22:22:14;43.42;;;22.70;;
58015;SDS011;43809;52.110;20.964;2024-02-28T22:24:16;41.60;;;22.88;;
58015;SDS011;43809;52.110;20.964;2024-02-28T22:26:17;41.60;;;23.42;;
58015;SDS011;43809;52.110;20.964;2024-02-28T22:28:19;41.95;;;22.63;;
58015;SDS011;43809;52.110;20.964;2024-02-28T22:30:34;38.28;;;21.25;;
58015;SDS011;43809;52.110;20.964;2024-02-28T22:32:34;37.58;;;22.02;;
58015;SDS011;43809;52.110;20.964;2024-02-28T22:34:35;38.55;;;22.17;;
58015;SDS011;43809;52.110;20.964;2024-02-28T22:36:36;46.45;;;26.75;;
58015;SDS011;43809;52.110;20.964;2024-02-28T22:38:40;37.25;;;22.17;;
58015;SDS011;43809;52.110;20.964;2024-02-28T22:40:40;37.90;;;21.02;;
58015;SDS011;43809;52.110;20.964;2024-02-28T22:42:41;38.50;;;20.90;;
58015;SDS011;43809;52.110;20.964;2024-02-28T22:44:43;39.15;;;20.17;;
58015;SDS011;43809;52.110;20.964;2024-02-28T22:46:44;38.17;;;21.02;;
58015;SDS011;43809;52.110;20.964;2024-02-28T22:48:46;33.13;;;18.53;;
58015;SDS011;43809;52.110;20.964;2024-02-28T22:50:46;40.05;;;20.42;;
58015;SDS011;43809;52.110;20.964;2024-02-28T22:52:47;32.58;;;18.23;;
58015;SDS011;43809;52.110;20.964;2024-02-28T22:54:48;32.60;;;17.45;;
58015;SDS011;43809;52.110;20.964;2024-02-28T22:56:49;33.28;;;17.65;;
58015;SDS011;43809;52.110;20.964;2024-02-28T23:02:00;35.28;;;18.48;;
58015;SDS011;43809;52.110;20.964;2024-02-28T23:04:01;46.63;;;22.75;;
58015;SDS011;43809;52.110;20.964;2024-02-28T23:06:01;33.80;;;18.75;;
58015;SDS011;43809;52.110;20.964;2024-02-28T23:13:38;33.08;;;16.23;;
58015;SDS011;43809;52.110;20.964;2024-02-28T23:15:39;36.33;;;18.95;;
58015;SDS011;43809;52.110;20.964;2024-02-28T23:17:41;36.87;;;18.37;;
58015;SDS011;43809;52.110;20.964;2024-02-28T23:19:41;28.00;;;16.08;;
58015;SDS011;43809;52.110;20.964;2024-02-28T23:21:42;30.40;;;16.45;;
58015;SDS011;43809;52.110;20.964;2024-02-28T23:23:43;33.35;;;17.25;;
58015;SDS011;43809;52.110;20.964;2024-02-28T23:25:51;29.48;;;15.15;;
58015;SDS011;43809;52.110;20.964;2024-02-28T23:27:52;33.05;;;16.13;;
58015;SDS011;43809;52.110;20.964;2024-02-28T23:29:54;28.63;;;14.85;;
58015;SDS011;43809;52.110;20.964;2024-02-28T23:31:54;25.33;;;15.20;;
58015;SDS011;43809;52.110;20.964;2024-02-28T23:33:57;27.40;;;14.82;;
58015;SDS011;43809;52.110;20.964;2024-02-28T23:35:58;27.17;;;14.75;;
58015;SDS011;43809;52.110;20.964;2024-02-28T23:37:59;25.15;;;14.23;;
58015;SDS011;43809;52.110;20.964;2024-02-28T23:40:00;25.42;;;14.68;;
58015;SDS011;43809;52.110;20.964;2024-02-28T23:42:01;23.98;;;12.82;;
58015;SDS011;43809;52.110;20.964;2024-02-28T23:44:02;28.58;;;14.82;;
58015;SDS011;43809;52.110;20.964;2024-02-28T23:46:03;23.75;;;13.02;;
58015;SDS011;43809;52.110;20.964;2024-02-28T23:48:03;24.52;;;13.38;;
58015;SDS011;43809;52.110;20.964;2024-02-28T23:50:04;22.40;;;12.70;;
58015;SDS011;43809;52.110;20.964;2024-02-28T23:52:05;22.30;;;13.00;;
58015;SDS011;43809;52.110;20.964;2024-02-28T23:54:07;19.35;;;11.88;;
58015;SDS011;43809;52.110;20.964;2024-02-28T23:56:07;24.95;;;14.25;;
58015;SDS011;43809;52.110;20.964;2024-02-28T23:58:08;25.77;;;15.38;;
